sensor_id;sensor_type;location;lat;lon;timestamp;P1;durP1;ratioP1;P2;durP2;ratioP2
36715;SDS011;22699;51.034;3.730;2023-06-22T00:02:25;8.75;;;5.95;;
36715;SDS011;22699;51.034;3.730;2023-06-22T00:04:52;8.98;;;5.80;;
36715;SDS011;22699;51.034;3.730;2023-06-22T00:07:21;7.30;;;5.25;;
36715;SDS011;22699;51.034;3.730;2023-06-22T00:09:48;10.52;;;7.13;;
36715;SDS011;22699;51.034;3.730;2023-06-22T00:12:13;10.38;;;6.30;;
36715;SDS011;22699;51.034;3.730;2023-06-22T00:14:41;8.75;;;6.45;;
36715;SDS011;22699;51.034;3.730;2023-06-22T00:17:07;10.82;;;6.35;;
36715;SDS011;22699;51.034;3.730;2023-06-22T00:19:33;8.48;;;6.25;;
36715;SDS011;22699;51.034;3.730;2023-06-22T00:22:00;8.23;;;6.25;;
36715;SDS011;22699;51.034;3.730;2023-06-22T00:24:28;8.23;;;6.70;;
36715;SDS011;22699;51.034;3.730;2023-06-22T00:26:54;11.30;;;7.00;;
36715;SDS011;22699;51.034;3.730;2023-06-22T00:29:19;10.88;;;7.57;;
36715;SDS011;22699;51.034;3.730;2023-06-22T00:31:45;11.52;;;8.43;;
36715;SDS011;22699;51.034;3.730;2023-06-22T00:34:11;10.20;;;7.93;;
36715;SDS011;22699;51.034;3.730;2023-06-22T00:36:36;13.95;;;9.30;;
36715;SDS011;22699;51.034;3.730;2023-06-22T00:39:02;13.48;;;9.07;;
36715;SDS011;22699;51.034;3.730;2023-06-22T00:41:28;13.40;;;8.85;;
36715;SDS011;22699;51.034;3.730;2023-06-22T00:43:54;10.38;;;8.82;;
36715;SDS011;22699;51.034;3.730;2023-06-22T00:46:20;10.68;;;9.23;;
36715;SDS011;22699;51.034;3.730;2023-06-22T00:48:48;15.13;;;8.25;;
36715;SDS011;22699;51.034;3.730;2023-06-22T00:51:14;11.63;;;7.80;;
36715;SDS011;22699;51.034;3.730;2023-06-22T00:53:41;10.15;;;7.72;;
36715;SDS011;22699;51.034;3.730;2023-06-22T00:56:08;8.27;;;7.28;;
36715;SDS011;22699;51.034;3.730;2023-06-22T00:58:38;7.37;;;6.63;;
36715;SDS011;22699;51.034;3.730;2023-06-22T01:01:06;9.73;;;6.28;;
36715;SDS011;22699;51.034;3.730;2023-06-22T01:03:32;7.60;;;5.70;;
36715;SDS011;22699;51.034;3.730;2023-06-22T01:06:02;8.27;;;6.07;;
36715;SDS011;22699;51.034;3.730;2023-06-22T01:11:36;6.38;;;4.75;;
36715;SDS011;22699;51.034;3.730;2023-06-22T01:14:14;7.00;;;5.35;;
36715;SDS011;22699;51.034;3.730;2023-06-22T01:16:47;6.65;;;4.18;;
36715;SDS011;22699;51.034;3.730;2023-06-22T01:22:07;4.38;;;3.88;;
36715;SDS011;22699;51.034;3.730;2023-06-22T01:27:44;5.30;;;4.40;;
36715;SDS011;22699;51.034;3.730;2023-06-22T01:30:27;6.93;;;4.25;;
36715;SDS011;22699;51.034;3.730;2023-06-22T01:35:27;5.55;;;4.10;;
36715;SDS011;22699;51.034;3.730;2023-06-22T01:37:55;5.63;;;4.60;;
36715;SDS011;22699;51.034;3.730;2023-06-22T01:40:21;4.15;;;3.75;;
36715;SDS011;22699;51.034;3.730;2023-06-22T01:42:47;4.47;;;3.78;;
36715;SDS011;22699;51.034;3.730;2023-06-22T01:45:16;5.53;;;4.03;;
36715;SDS011;22699;51.034;3.730;2023-06-22T01:47:44;5.07;;;4.15;;
36715;SDS011;22699;51.034;3.730;2023-06-22T01:50:11;5.88;;;3.90;;
36715;SDS011;22699;51.034;3.730;2023-06-22T01:52:37;5.50;;;3.53;;
36715;SDS011;22699;51.034;3.730;2023-06-22T01:55:03;7.18;;;4.15;;
36715;SDS011;22699;51.034;3.730;2023-06-22T01:57:30;4.75;;;3.50;;
36715;SDS011;22699;51.034;3.730;2023-06-22T02:00:04;5.95;;;3.78;;
36715;SDS011;22699;51.034;3.730;2023-06-22T02:02:43;4.13;;;3.60;;
36715;SDS011;22699;51.034;3.730;2023-06-22T02:05:18;5.13;;;4.13;;
36715;SDS011;22699;51.034;3.730;2023-06-22T02:08:28;5.30;;;3.60;;
36715;SDS011;22699;51.034;3.730;2023-06-22T02:10:38;4.93;;;3.75;;
36715;SDS011;22699;51.034;3.730;2023-06-22T02:13:08;4.47;;;4.07;;
36715;SDS011;22699;51.034;3.730;2023-06-22T02:15:37;5.43;;;4.18;;
36715;SDS011;22699;51.034;3.730;2023-06-22T02:18:04;7.05;;;4.60;;
36715;SDS011;22699;51.034;3.730;2023-06-22T02:20:32;4.70;;;4.13;;
36715;SDS011;22699;51.034;3.730;2023-06-22T02:22:58;5.82;;;4.20;;
36715;SDS011;22699;51.034;3.730;2023-06-22T02:25:23;4.55;;;4.10;;
36715;SDS011;22699;51.034;3.730;2023-06-22T02:30:20;4.97;;;4.30;;
36715;SDS011;22699;51.034;3.730;2023-06-22T02:32:45;4.53;;;3.65;;
36715;SDS011;22699;51.034;3.730;2023-06-22T02:35:12;8.07;;;4.13;;
36715;SDS011;22699;51.034;3.730;2023-06-22T02:37:39;5.47;;;3.95;;
36715;SDS011;22699;51.034;3.730;2023-06-22T02:40:12;5.00;;;4.28;;
36715;SDS011;22699;51.034;3.730;2023-06-22T02:42:39;5.68;;;4.30;;
36715;SDS011;22699;51.034;3.730;2023-06-22T02:47:36;5.63;;;4.45;;
36715;SDS011;22699;51.034;3.730;2023-06-22T02:50:01;6.22;;;4.40;;
36715;SDS011;22699;51.034;3.730;2023-06-22T02:52:28;5.97;;;3.70;;
36715;SDS011;22699;51.034;3.730;2023-06-22T02:54:56;5.05;;;4.53;;
36715;SDS011;22699;51.034;3.730;2023-06-22T02:57:24;5.78;;;3.97;;
36715;SDS011;22699;51.034;3.730;2023-06-22T02:59:51;4.55;;;3.65;;
36715;SDS011;22699;51.034;3.730;2023-06-22T03:02:18;5.50;;;3.83;;
36715;SDS011;22699;51.034;3.730;2023-06-22T03:04:47;6.13;;;4.00;;
36715;SDS011;22699;51.034;3.730;2023-06-22T03:07:14;5.07;;;4.35;;
36715;SDS011;22699;51.034;3.730;2023-06-22T03:09:41;5.70;;;5.07;;
36715;SDS011;22699;51.034;3.730;2023-06-22T03:12:14;7.35;;;5.80;;
36715;SDS011;22699;51.034;3.730;2023-06-22T03:14:39;8.07;;;5.93;;
36715;SDS011;22699;51.034;3.730;2023-06-22T03:17:06;8.00;;;5.45;;
36715;SDS011;22699;51.034;3.730;2023-06-22T03:19:31;7.20;;;6.35;;
36715;SDS011;22699;51.034;3.730;2023-06-22T03:22:00;7.32;;;5.22;;
36715;SDS011;22699;51.034;3.730;2023-06-22T03:24:28;7.10;;;6.40;;
36715;SDS011;22699;51.034;3.730;2023-06-22T03:26:55;8.38;;;5.63;;
36715;SDS011;22699;51.034;3.730;2023-06-22T03:29:23;6.70;;;5.35;;
36715;SDS011;22699;51.034;3.730;2023-06-22T03:31:50;7.15;;;6.07;;
36715;SDS011;22699;51.034;3.730;2023-06-22T03:36:44;7.57;;;4.90;;
36715;SDS011;22699;51.034;3.730;2023-06-22T03:41:39;6.75;;;5.55;;
36715;SDS011;22699;51.034;3.730;2023-06-22T03:44:04;7.30;;;5.47;;
36715;SDS011;22699;51.034;3.730;2023-06-22T03:46:32;7.63;;;6.40;;
36715;SDS011;22699;51.034;3.730;2023-06-22T03:48:57;8.25;;;6.38;;
36715;SDS011;22699;51.034;3.730;2023-06-22T03:53:52;8.60;;;6.85;;
36715;SDS011;22699;51.034;3.730;2023-06-22T03:56:17;8.50;;;6.90;;
36715;SDS011;22699;51.034;3.730;2023-06-22T03:58:46;15.30;;;8.15;;
36715;SDS011;22699;51.034;3.730;2023-06-22T04:01:12;14.13;;;8.05;;
36715;SDS011;22699;51.034;3.730;2023-06-22T04:03:38;12.25;;;8.40;;
36715;SDS011;22699;51.034;3.730;2023-06-22T04:06:05;12.00;;;7.22;;
36715;SDS011;22699;51.034;3.730;2023-06-22T04:08:30;14.63;;;8.02;;
36715;SDS011;22699;51.034;3.730;2023-06-22T04:10:58;10.63;;;7.00;;
36715;SDS011;22699;51.034;3.730;2023-06-22T04:13:25;15.82;;;8.70;;
36715;SDS011;22699;51.034;3.730;2023-06-22T04:15:51;17.27;;;8.07;;
36715;SDS011;22699;51.034;3.730;2023-06-22T04:18:19;17.27;;;7.65;;
36715;SDS011;22699;51.034;3.730;2023-06-22T04:20:44;18.45;;;8.73;;
36715;SDS011;22699;51.034;3.730;2023-06-22T04:23:13;12.85;;;8.88;;
36715;SDS011;22699;51.034;3.730;2023-06-22T04:25:39;13.65;;;8.32;;
36715;SDS011;22699;51.034;3.730;2023-06-22T04:28:04;13.00;;;9.15;;
36715;SDS011;22699;51.034;3.730;2023-06-22T04:30:32;12.63;;;8.55;;
36715;SDS011;22699;51.034;3.730;2023-06-22T04:33:01;15.10;;;9.23;;
36715;SDS011;22699;51.034;3.730;2023-06-22T04:35:27;15.73;;;9.25;;
36715;SDS011;22699;51.034;3.730;2023-06-22T04:37:58;15.43;;;9.05;;
36715;SDS011;22699;51.034;3.730;2023-06-22T04:40:24;17.50;;;10.82;;
36715;SDS011;22699;51.034;3.730;2023-06-22T04:42:50;15.05;;;9.43;;
36715;SDS011;22699;51.034;3.730;2023-06-22T04:45:19;15.65;;;11.20;;
36715;SDS011;22699;51.034;3.730;2023-06-22T04:47:45;16.23;;;10.57;;
36715;SDS011;22699;51.034;3.730;2023-06-22T04:50:12;15.90;;;10.73;;
36715;SDS011;22699;51.034;3.730;2023-06-22T04:52:39;14.65;;;10.02;;
36715;SDS011;22699;51.034;3.730;2023-06-22T04:55:05;21.67;;;10.25;;
36715;SDS011;22699;51.034;3.730;2023-06-22T04:57:31;19.23;;;11.88;;
36715;SDS011;22699;51.034;3.730;2023-06-22T05:00:00;17.15;;;11.00;;
36715;SDS011;22699;51.034;3.730;2023-06-22T05:02:27;20.23;;;11.20;;
36715;SDS011;22699;51.034;3.730;2023-06-22T05:04:57;20.95;;;9.90;;
36715;SDS011;22699;51.034;3.730;2023-06-22T05:07:24;17.25;;;9.60;;
36715;SDS011;22699;51.034;3.730;2023-06-22T05:09:50;12.55;;;9.20;;
36715;SDS011;22699;51.034;3.730;2023-06-22T05:12:17;12.25;;;10.23;;
36715;SDS011;22699;51.034;3.730;2023-06-22T05:14:43;16.55;;;9.52;;
36715;SDS011;22699;51.034;3.730;2023-06-22T05:17:09;15.27;;;8.98;;
36715;SDS011;22699;51.034;3.730;2023-06-22T05:19:39;15.20;;;8.27;;
36715;SDS011;22699;51.034;3.730;2023-06-22T05:22:13;16.15;;;9.35;;
36715;SDS011;22699;51.034;3.730;2023-06-22T05:24:46;11.57;;;8.27;;
36715;SDS011;22699;51.034;3.730;2023-06-22T05:27:13;13.80;;;8.25;;
36715;SDS011;22699;51.034;3.730;2023-06-22T05:29:39;15.13;;;8.45;;
36715;SDS011;22699;51.034;3.730;2023-06-22T05:32:07;14.00;;;7.97;;
36715;SDS011;22699;51.034;3.730;2023-06-22T05:34:33;11.52;;;8.00;;
36715;SDS011;22699;51.034;3.730;2023-06-22T05:36:59;10.35;;;6.80;;
36715;SDS011;22699;51.034;3.730;2023-06-22T05:39:27;16.08;;;7.70;;
36715;SDS011;22699;51.034;3.730;2023-06-22T05:41:52;9.55;;;7.15;;
36715;SDS011;22699;51.034;3.730;2023-06-22T05:44:18;9.48;;;7.85;;
36715;SDS011;22699;51.034;3.730;2023-06-22T05:46:44;18.48;;;8.73;;
36715;SDS011;22699;51.034;3.730;2023-06-22T05:49:11;13.85;;;8.60;;
36715;SDS011;22699;51.034;3.730;2023-06-22T05:51:38;12.38;;;7.93;;
36715;SDS011;22699;51.034;3.730;2023-06-22T05:54:05;11.07;;;7.82;;
36715;SDS011;22699;51.034;3.730;2023-06-22T05:56:31;12.00;;;8.15;;
36715;SDS011;22699;51.034;3.730;2023-06-22T05:58:57;14.85;;;9.00;;
36715;SDS011;22699;51.034;3.730;2023-06-22T06:01:22;12.50;;;8.20;;
36715;SDS011;22699;51.034;3.730;2023-06-22T06:03:50;13.88;;;8.40;;
36715;SDS011;22699;51.034;3.730;2023-06-22T06:06:17;11.77;;;8.43;;
36715;SDS011;22699;51.034;3.730;2023-06-22T06:08:46;14.15;;;9.18;;
36715;SDS011;22699;51.034;3.730;2023-06-22T06:11:11;16.65;;;9.45;;
36715;SDS011;22699;51.034;3.730;2023-06-22T06:13:37;17.23;;;11.20;;
36715;SDS011;22699;51.034;3.730;2023-06-22T06:16:02;18.92;;;10.20;;
36715;SDS011;22699;51.034;3.730;2023-06-22T06:18:28;16.80;;;10.82;;
36715;SDS011;22699;51.034;3.730;2023-06-22T06:20:54;13.43;;;10.13;;
36715;SDS011;22699;51.034;3.730;2023-06-22T06:23:19;13.65;;;10.27;;
36715;SDS011;22699;51.034;3.730;2023-06-22T06:25:46;13.90;;;10.48;;
36715;SDS011;22699;51.034;3.730;2023-06-22T06:28:11;13.70;;;11.63;;
36715;SDS011;22699;51.034;3.730;2023-06-22T06:30:37;15.73;;;12.10;;
36715;SDS011;22699;51.034;3.730;2023-06-22T06:33:03;17.20;;;11.93;;
36715;SDS011;22699;51.034;3.730;2023-06-22T06:35:33;14.05;;;12.38;;
36715;SDS011;22699;51.034;3.730;2023-06-22T06:37:59;15.73;;;12.20;;
36715;SDS011;22699;51.034;3.730;2023-06-22T06:40:25;17.27;;;12.98;;
36715;SDS011;22699;51.034;3.730;2023-06-22T06:42:50;15.20;;;12.57;;
36715;SDS011;22699;51.034;3.730;2023-06-22T06:45:20;16.08;;;13.45;;
36715;SDS011;22699;51.034;3.730;2023-06-22T06:47:50;13.90;;;12.40;;
36715;SDS011;22699;51.034;3.730;2023-06-22T06:50:18;13.25;;;11.85;;
36715;SDS011;22699;51.034;3.730;2023-06-22T06:52:44;18.45;;;14.38;;
36715;SDS011;22699;51.034;3.730;2023-06-22T06:55:09;15.82;;;12.38;;
36715;SDS011;22699;51.034;3.730;2023-06-22T06:57:37;16.98;;;14.68;;
36715;SDS011;22699;51.034;3.730;2023-06-22T07:00:06;16.58;;;13.07;;
36715;SDS011;22699;51.034;3.730;2023-06-22T07:02:40;15.25;;;13.30;;
36715;SDS011;22699;51.034;3.730;2023-06-22T07:05:07;16.23;;;12.18;;
36715;SDS011;22699;51.034;3.730;2023-06-22T07:07:35;18.25;;;13.85;;
36715;SDS011;22699;51.034;3.730;2023-06-22T07:10:00;16.38;;;13.20;;
36715;SDS011;22699;51.034;3.730;2023-06-22T07:12:27;17.75;;;14.20;;
36715;SDS011;22699;51.034;3.730;2023-06-22T07:14:56;19.58;;;14.65;;
36715;SDS011;22699;51.034;3.730;2023-06-22T07:17:27;16.10;;;14.07;;
36715;SDS011;22699;51.034;3.730;2023-06-22T07:19:53;15.43;;;13.68;;
36715;SDS011;22699;51.034;3.730;2023-06-22T07:22:19;17.52;;;14.20;;
36715;SDS011;22699;51.034;3.730;2023-06-22T07:24:46;17.30;;;14.45;;
36715;SDS011;22699;51.034;3.730;2023-06-22T07:27:15;17.05;;;15.20;;
36715;SDS011;22699;51.034;3.730;2023-06-22T07:29:44;15.77;;;14.00;;
36715;SDS011;22699;51.034;3.730;2023-06-22T07:32:09;18.00;;;13.18;;
36715;SDS011;22699;51.034;3.730;2023-06-22T07:34:35;14.90;;;13.40;;
36715;SDS011;22699;51.034;3.730;2023-06-22T07:37:01;18.42;;;13.00;;
36715;SDS011;22699;51.034;3.730;2023-06-22T07:39:27;16.00;;;14.02;;
36715;SDS011;22699;51.034;3.730;2023-06-22T07:41:53;18.42;;;14.15;;
36715;SDS011;22699;51.034;3.730;2023-06-22T07:44:20;18.17;;;14.15;;
36715;SDS011;22699;51.034;3.730;2023-06-22T07:46:46;18.65;;;13.25;;
36715;SDS011;22699;51.034;3.730;2023-06-22T07:49:15;17.33;;;14.68;;
36715;SDS011;22699;51.034;3.730;2023-06-22T07:51:42;16.23;;;13.52;;
36715;SDS011;22699;51.034;3.730;2023-06-22T07:54:10;15.55;;;13.35;;
36715;SDS011;22699;51.034;3.730;2023-06-22T07:56:36;16.20;;;13.23;;
36715;SDS011;22699;51.034;3.730;2023-06-22T08:01:31;14.65;;;11.73;;
36715;SDS011;22699;51.034;3.730;2023-06-22T08:03:58;14.38;;;12.77;;
36715;SDS011;22699;51.034;3.730;2023-06-22T08:06:24;16.17;;;13.07;;
36715;SDS011;22699;51.034;3.730;2023-06-22T08:08:50;13.55;;;12.23;;
36715;SDS011;22699;51.034;3.730;2023-06-22T08:13:48;17.00;;;12.98;;
36715;SDS011;22699;51.034;3.730;2023-06-22T08:16:13;16.20;;;14.27;;
36715;SDS011;22699;51.034;3.730;2023-06-22T08:18:41;15.15;;;13.63;;
36715;SDS011;22699;51.034;3.730;2023-06-22T08:21:06;16.77;;;14.07;;
36715;SDS011;22699;51.034;3.730;2023-06-22T08:23:32;14.63;;;13.13;;
36715;SDS011;22699;51.034;3.730;2023-06-22T08:25:58;17.15;;;13.48;;
36715;SDS011;22699;51.034;3.730;2023-06-22T08:28:23;14.02;;;11.63;;
36715;SDS011;22699;51.034;3.730;2023-06-22T08:30:49;14.95;;;12.45;;
36715;SDS011;22699;51.034;3.730;2023-06-22T08:33:15;14.73;;;11.63;;
36715;SDS011;22699;51.034;3.730;2023-06-22T08:35:44;14.13;;;12.15;;
36715;SDS011;22699;51.034;3.730;2023-06-22T08:38:11;12.95;;;11.57;;
36715;SDS011;22699;51.034;3.730;2023-06-22T08:40:39;16.60;;;11.55;;
36715;SDS011;22699;51.034;3.730;2023-06-22T08:43:04;14.68;;;13.05;;
36715;SDS011;22699;51.034;3.730;2023-06-22T08:45:31;14.73;;;12.43;;
36715;SDS011;22699;51.034;3.730;2023-06-22T08:47:57;17.70;;;13.23;;
36715;SDS011;22699;51.034;3.730;2023-06-22T08:50:22;14.95;;;12.73;;
36715;SDS011;22699;51.034;3.730;2023-06-22T08:52:48;26.50;;;13.50;;
36715;SDS011;22699;51.034;3.730;2023-06-22T08:55:14;17.33;;;13.85;;
36715;SDS011;22699;51.034;3.730;2023-06-22T08:57:39;16.90;;;14.27;;
36715;SDS011;22699;51.034;3.730;2023-06-22T09:00:06;16.85;;;14.98;;
36715;SDS011;22699;51.034;3.730;2023-06-22T09:02:53;18.65;;;14.93;;
36715;SDS011;22699;51.034;3.730;2023-06-22T09:05:19;17.13;;;15.38;;
36715;SDS011;22699;51.034;3.730;2023-06-22T09:07:52;18.17;;;15.25;;
36715;SDS011;22699;51.034;3.730;2023-06-22T09:10:21;19.33;;;16.65;;
36715;SDS011;22699;51.034;3.730;2023-06-22T09:12:47;17.23;;;15.32;;
36715;SDS011;22699;51.034;3.730;2023-06-22T09:15:13;18.17;;;15.23;;
36715;SDS011;22699;51.034;3.730;2023-06-22T09:17:40;18.88;;;14.00;;
36715;SDS011;22699;51.034;3.730;2023-06-22T09:20:06;19.65;;;14.02;;
36715;SDS011;22699;51.034;3.730;2023-06-22T09:22:35;21.83;;;15.07;;
36715;SDS011;22699;51.034;3.730;2023-06-22T09:25:01;17.95;;;13.48;;
36715;SDS011;22699;51.034;3.730;2023-06-22T09:27:27;17.67;;;14.27;;
36715;SDS011;22699;51.034;3.730;2023-06-22T09:29:53;13.80;;;12.40;;
36715;SDS011;22699;51.034;3.730;2023-06-22T09:32:19;17.52;;;14.02;;
36715;SDS011;22699;51.034;3.730;2023-06-22T09:34:44;16.30;;;13.48;;
36715;SDS011;22699;51.034;3.730;2023-06-22T09:37:12;15.48;;;13.73;;
36715;SDS011;22699;51.034;3.730;2023-06-22T09:39:38;20.70;;;15.15;;
36715;SDS011;22699;51.034;3.730;2023-06-22T09:42:04;14.48;;;12.88;;
36715;SDS011;22699;51.034;3.730;2023-06-22T09:44:32;17.00;;;14.43;;
36715;SDS011;22699;51.034;3.730;2023-06-22T09:47:00;15.38;;;13.88;;
36715;SDS011;22699;51.034;3.730;2023-06-22T09:49:25;21.25;;;15.25;;
36715;SDS011;22699;51.034;3.730;2023-06-22T09:51:53;18.27;;;15.27;;
36715;SDS011;22699;51.034;3.730;2023-06-22T09:54:22;15.95;;;13.95;;
36715;SDS011;22699;51.034;3.730;2023-06-22T09:56:48;20.92;;;14.52;;
36715;SDS011;22699;51.034;3.730;2023-06-22T10:01:42;18.85;;;14.63;;
36715;SDS011;22699;51.034;3.730;2023-06-22T10:04:09;17.45;;;14.23;;
36715;SDS011;22699;51.034;3.730;2023-06-22T10:06:34;15.27;;;13.25;;
36715;SDS011;22699;51.034;3.730;2023-06-22T10:11:32;15.63;;;12.63;;
36715;SDS011;22699;51.034;3.730;2023-06-22T10:13:59;14.02;;;11.77;;
36715;SDS011;22699;51.034;3.730;2023-06-22T10:16:30;13.60;;;11.80;;
36715;SDS011;22699;51.034;3.730;2023-06-22T10:21:26;12.90;;;11.60;;
36715;SDS011;22699;51.034;3.730;2023-06-22T10:23:56;15.30;;;11.48;;
36715;SDS011;22699;51.034;3.730;2023-06-22T10:26:22;13.23;;;11.85;;
36715;SDS011;22699;51.034;3.730;2023-06-22T10:28:49;14.40;;;12.05;;
36715;SDS011;22699;51.034;3.730;2023-06-22T10:31:15;15.05;;;12.10;;
36715;SDS011;22699;51.034;3.730;2023-06-22T10:33:42;14.77;;;12.20;;
36715;SDS011;22699;51.034;3.730;2023-06-22T10:36:10;14.95;;;12.35;;
36715;SDS011;22699;51.034;3.730;2023-06-22T10:38:39;18.50;;;13.18;;
36715;SDS011;22699;51.034;3.730;2023-06-22T10:41:06;16.17;;;14.35;;
36715;SDS011;22699;51.034;3.730;2023-06-22T10:43:31;17.85;;;13.70;;
36715;SDS011;22699;51.034;3.730;2023-06-22T10:45:57;13.82;;;11.98;;
36715;SDS011;22699;51.034;3.730;2023-06-22T10:48:25;17.27;;;13.98;;
36715;SDS011;22699;51.034;3.730;2023-06-22T10:50:54;15.57;;;13.88;;
36715;SDS011;22699;51.034;3.730;2023-06-22T10:53:21;19.90;;;14.40;;
36715;SDS011;22699;51.034;3.730;2023-06-22T10:55:47;16.52;;;14.10;;
36715;SDS011;22699;51.034;3.730;2023-06-22T11:00:44;17.98;;;14.07;;
36715;SDS011;22699;51.034;3.730;2023-06-22T11:03:10;16.75;;;13.88;;
36715;SDS011;22699;51.034;3.730;2023-06-22T11:05:41;15.70;;;13.02;;
36715;SDS011;22699;51.034;3.730;2023-06-22T11:08:08;16.02;;;13.07;;
36715;SDS011;22699;51.034;3.730;2023-06-22T11:10:35;19.95;;;16.10;;
36715;SDS011;22699;51.034;3.730;2023-06-22T11:13:01;18.35;;;14.52;;
36715;SDS011;22699;51.034;3.730;2023-06-22T11:15:32;19.98;;;16.70;;
36715;SDS011;22699;51.034;3.730;2023-06-22T11:17:59;18.80;;;16.83;;
36715;SDS011;22699;51.034;3.730;2023-06-22T11:20:24;18.38;;;13.95;;
36715;SDS011;22699;51.034;3.730;2023-06-22T11:22:53;15.40;;;13.30;;
36715;SDS011;22699;51.034;3.730;2023-06-22T11:25:18;15.77;;;12.45;;
36715;SDS011;22699;51.034;3.730;2023-06-22T11:30:19;13.30;;;11.68;;
36715;SDS011;22699;51.034;3.730;2023-06-22T11:32:45;14.48;;;11.63;;
36715;SDS011;22699;51.034;3.730;2023-06-22T11:35:11;14.15;;;11.07;;
36715;SDS011;22699;51.034;3.730;2023-06-22T11:37:39;14.63;;;10.65;;
36715;SDS011;22699;51.034;3.730;2023-06-22T11:42:34;12.30;;;8.70;;
36715;SDS011;22699;51.034;3.730;2023-06-22T11:45:04;10.75;;;7.10;;
36715;SDS011;22699;51.034;3.730;2023-06-22T11:47:32;11.50;;;7.70;;
36715;SDS011;22699;51.034;3.730;2023-06-22T11:49:58;10.55;;;7.13;;
36715;SDS011;22699;51.034;3.730;2023-06-22T11:52:23;8.32;;;6.40;;
36715;SDS011;22699;51.034;3.730;2023-06-22T11:54:50;9.82;;;6.65;;
36715;SDS011;22699;51.034;3.730;2023-06-22T11:57:19;8.77;;;5.90;;
36715;SDS011;22699;51.034;3.730;2023-06-22T11:59:48;7.72;;;6.35;;
36715;SDS011;22699;51.034;3.730;2023-06-22T12:02:13;7.75;;;5.65;;
36715;SDS011;22699;51.034;3.730;2023-06-22T12:04:39;7.63;;;6.03;;
36715;SDS011;22699;51.034;3.730;2023-06-22T12:07:04;9.13;;;6.97;;
36715;SDS011;22699;51.034;3.730;2023-06-22T12:09:36;11.43;;;7.10;;
36715;SDS011;22699;51.034;3.730;2023-06-22T12:12:04;11.20;;;7.70;;
36715;SDS011;22699;51.034;3.730;2023-06-22T12:14:32;12.90;;;7.53;;
36715;SDS011;22699;51.034;3.730;2023-06-22T12:16:58;10.60;;;6.80;;
36715;SDS011;22699;51.034;3.730;2023-06-22T12:19:23;9.90;;;7.65;;
36715;SDS011;22699;51.034;3.730;2023-06-22T12:21:50;13.10;;;7.68;;
36715;SDS011;22699;51.034;3.730;2023-06-22T12:24:15;13.73;;;8.38;;
36715;SDS011;22699;51.034;3.730;2023-06-22T12:26:41;12.60;;;8.13;;
36715;SDS011;22699;51.034;3.730;2023-06-22T12:29:08;13.30;;;7.00;;
36715;SDS011;22699;51.034;3.730;2023-06-22T12:31:35;9.82;;;6.53;;
36715;SDS011;22699;51.034;3.730;2023-06-22T12:34:01;9.20;;;6.47;;
36715;SDS011;22699;51.034;3.730;2023-06-22T12:36:27;9.90;;;6.13;;
36715;SDS011;22699;51.034;3.730;2023-06-22T12:38:56;9.52;;;6.80;;
36715;SDS011;22699;51.034;3.730;2023-06-22T12:41:21;10.50;;;7.82;;
36715;SDS011;22699;51.034;3.730;2023-06-22T12:43:50;9.60;;;7.57;;
36715;SDS011;22699;51.034;3.730;2023-06-22T12:46:17;13.25;;;8.27;;
36715;SDS011;22699;51.034;3.730;2023-06-22T12:48:42;11.90;;;8.80;;
36715;SDS011;22699;51.034;3.730;2023-06-22T12:51:11;14.02;;;10.68;;
36715;SDS011;22699;51.034;3.730;2023-06-22T12:53:37;15.10;;;11.25;;
36715;SDS011;22699;51.034;3.730;2023-06-22T12:56:02;14.18;;;10.63;;
36715;SDS011;22699;51.034;3.730;2023-06-22T12:58:28;15.45;;;12.40;;
36715;SDS011;22699;51.034;3.730;2023-06-22T13:00:54;17.63;;;12.98;;
36715;SDS011;22699;51.034;3.730;2023-06-22T13:03:20;15.27;;;13.00;;
36715;SDS011;22699;51.034;3.730;2023-06-22T13:05:46;19.80;;;13.75;;
36715;SDS011;22699;51.034;3.730;2023-06-22T13:08:12;18.38;;;14.05;;
36715;SDS011;22699;51.034;3.730;2023-06-22T13:10:40;17.48;;;14.15;;
36715;SDS011;22699;51.034;3.730;2023-06-22T13:13:05;17.63;;;14.02;;
36715;SDS011;22699;51.034;3.730;2023-06-22T13:15:31;16.80;;;15.02;;
36715;SDS011;22699;51.034;3.730;2023-06-22T13:17:57;18.15;;;14.18;;
36715;SDS011;22699;51.034;3.730;2023-06-22T13:20:22;19.08;;;14.95;;
36715;SDS011;22699;51.034;3.730;2023-06-22T13:22:48;16.23;;;14.30;;
36715;SDS011;22699;51.034;3.730;2023-06-22T13:25:13;20.80;;;15.70;;
36715;SDS011;22699;51.034;3.730;2023-06-22T13:27:44;20.85;;;16.20;;
36715;SDS011;22699;51.034;3.730;2023-06-22T13:30:10;22.70;;;18.17;;
36715;SDS011;22699;51.034;3.730;2023-06-22T13:32:35;20.65;;;16.48;;
36715;SDS011;22699;51.034;3.730;2023-06-22T13:35:01;20.90;;;16.95;;
36715;SDS011;22699;51.034;3.730;2023-06-22T13:37:27;19.80;;;15.75;;
36715;SDS011;22699;51.034;3.730;2023-06-22T13:39:53;17.75;;;14.40;;
36715;SDS011;22699;51.034;3.730;2023-06-22T13:42:21;17.98;;;14.80;;
36715;SDS011;22699;51.034;3.730;2023-06-22T13:44:46;17.83;;;14.32;;
36715;SDS011;22699;51.034;3.730;2023-06-22T13:47:12;17.48;;;14.80;;
36715;SDS011;22699;51.034;3.730;2023-06-22T13:49:38;20.02;;;16.33;;
36715;SDS011;22699;51.034;3.730;2023-06-22T13:52:04;16.63;;;14.18;;
36715;SDS011;22699;51.034;3.730;2023-06-22T13:54:36;19.48;;;14.90;;
36715;SDS011;22699;51.034;3.730;2023-06-22T13:57:02;19.60;;;16.20;;
36715;SDS011;22699;51.034;3.730;2023-06-22T13:59:27;19.23;;;14.68;;
36715;SDS011;22699;51.034;3.730;2023-06-22T14:01:53;20.10;;;15.93;;
36715;SDS011;22699;51.034;3.730;2023-06-22T14:04:19;20.05;;;16.67;;
36715;SDS011;22699;51.034;3.730;2023-06-22T14:06:46;18.05;;;14.85;;
36715;SDS011;22699;51.034;3.730;2023-06-22T14:09:12;20.45;;;15.82;;
36715;SDS011;22699;51.034;3.730;2023-06-22T14:11:38;20.45;;;15.02;;
36715;SDS011;22699;51.034;3.730;2023-06-22T14:14:03;15.88;;;14.07;;
36715;SDS011;22699;51.034;3.730;2023-06-22T14:16:29;17.58;;;14.25;;
36715;SDS011;22699;51.034;3.730;2023-06-22T14:18:55;19.55;;;16.00;;
36715;SDS011;22699;51.034;3.730;2023-06-22T14:21:20;15.65;;;13.75;;
36715;SDS011;22699;51.034;3.730;2023-06-22T14:23:46;16.63;;;14.93;;
36715;SDS011;22699;51.034;3.730;2023-06-22T14:26:14;15.93;;;13.80;;
36715;SDS011;22699;51.034;3.730;2023-06-22T14:28:46;19.08;;;16.10;;
36715;SDS011;22699;51.034;3.730;2023-06-22T14:33:39;18.30;;;15.43;;
36715;SDS011;22699;51.034;3.730;2023-06-22T14:36:05;18.05;;;16.17;;
36715;SDS011;22699;51.034;3.730;2023-06-22T14:38:32;20.15;;;16.45;;
36715;SDS011;22699;51.034;3.730;2023-06-22T14:41:02;19.60;;;16.38;;
36715;SDS011;22699;51.034;3.730;2023-06-22T14:43:28;17.00;;;15.27;;
36715;SDS011;22699;51.034;3.730;2023-06-22T14:45:54;19.60;;;16.58;;
36715;SDS011;22699;51.034;3.730;2023-06-22T14:48:20;19.00;;;17.10;;
36715;SDS011;22699;51.034;3.730;2023-06-22T14:50:46;20.25;;;17.73;;
36715;SDS011;22699;51.034;3.730;2023-06-22T14:53:11;17.30;;;15.50;;
36715;SDS011;22699;51.034;3.730;2023-06-22T14:55:37;18.08;;;16.17;;
36715;SDS011;22699;51.034;3.730;2023-06-22T14:58:04;18.90;;;15.98;;
36715;SDS011;22699;51.034;3.730;2023-06-22T15:00:29;22.17;;;17.60;;
36715;SDS011;22699;51.034;3.730;2023-06-22T15:02:55;19.80;;;17.70;;
36715;SDS011;22699;51.034;3.730;2023-06-22T15:05:21;21.27;;;18.98;;
36715;SDS011;22699;51.034;3.730;2023-06-22T15:07:49;24.08;;;21.50;;
36715;SDS011;22699;51.034;3.730;2023-06-22T15:10:15;25.05;;;22.33;;
36715;SDS011;22699;51.034;3.730;2023-06-22T15:12:41;27.00;;;23.70;;
36715;SDS011;22699;51.034;3.730;2023-06-22T15:15:08;24.92;;;22.23;;
36715;SDS011;22699;51.034;3.730;2023-06-22T15:17:34;27.17;;;23.63;;